sensor_id;sensor_type;location;lat;lon;timestamp;temperature;humidity
28614;DHT22;15806;53.548;9.964;2022-11-04T00:01:37;14.00;99.90
28614;DHT22;15806;53.548;9.964;2022-11-04T00:03:18;14.10;99.90
28614;DHT22;15806;53.548;9.964;2022-11-04T00:04:59;14.20;99.90
28614;DHT22;15806;53.548;9.964;2022-11-04T00:06:43;14.40;99.90
28614;DHT22;15806;53.548;9.964;2022-11-04T00:08:24;14.40;99.90
28614;DHT22;15806;53.548;9.964;2022-11-04T00:10:05;14.40;99.90
28614;DHT22;15806;53.548;9.964;2022-11-04T00:11:45;14.50;99.90
28614;DHT22;15806;53.548;9.964;2022-11-04T00:13:28;14.60;99.90
28614;DHT22;15806;53.548;9.964;2022-11-04T00:15:11;14.80;99.90
28614;DHT22;15806;53.548;9.964;2022-11-04T00:16:52;14.70;99.90
28614;DHT22;15806;53.548;9.964;2022-11-04T00:18:34;14.80;99.90
28614;DHT22;15806;53.548;9.964;2022-11-04T00:20:18;14.80;99.90
28614;DHT22;15806;53.548;9.964;2022-11-04T00:21:58;14.90;99.90
28614;DHT22;15806;53.548;9.964;2022-11-04T00:23:42;14.90;99.90
28614;DHT22;15806;53.548;9.964;2022-11-04T00:25:22;14.90;99.90
28614;DHT22;15806;53.548;9.964;2022-11-04T00:27:16;15.00;99.90
28614;DHT22;15806;53.548;9.964;2022-11-04T00:28:57;15.20;99.90
28614;DHT22;15806;53.548;9.964;2022-11-04T00:30:38;15.30;99.90
28614;DHT22;15806;53.548;9.964;2022-11-04T00:32:18;15.30;99.90
28614;DHT22;15806;53.548;9.964;2022-11-04T00:33:59;15.60;99.90
28614;DHT22;15806;53.548;9.964;2022-11-04T00:35:39;15.60;99.90
28614;DHT22;15806;53.548;9.964;2022-11-04T00:37:20;15.60;99.90
28614;DHT22;15806;53.548;9.964;2022-11-04T00:39:00;15.70;99.90
28614;DHT22;15806;53.548;9.964;2022-11-04T00:40:41;15.80;99.90
28614;DHT22;15806;53.548;9.964;2022-11-04T00:42:21;16.00;99.90
28614;DHT22;15806;53.548;9.964;2022-11-04T00:44:04;15.80;99.90
28614;DHT22;15806;53.548;9.964;2022-11-04T00:45:44;15.70;99.90
28614;DHT22;15806;53.548;9.964;2022-11-04T00:47:25;15.50;99.90
28614;DHT22;15806;53.548;9.964;2022-11-04T00:49:05;15.50;99.90
28614;DHT22;15806;53.548;9.964;2022-11-04T00:50:46;15.70;99.90
28614;DHT22;15806;53.548;9.964;2022-11-04T00:52:27;15.70;99.90
28614;DHT22;15806;53.548;9.964;2022-11-04T00:54:07;15.80;99.90
28614;DHT22;15806;53.548;9.964;2022-11-04T00:55:48;15.90;99.90
28614;DHT22;15806;53.548;9.964;2022-11-04T00:57:28;16.00;99.90
28614;DHT22;15806;53.548;9.964;2022-11-04T00:59:09;16.10;99.90
28614;DHT22;15806;53.548;9.964;2022-11-04T01:00:49;16.10;99.90
28614;DHT22;15806;53.548;9.964;2022-11-04T01:02:30;16.20;99.90
28614;DHT22;15806;53.548;9.964;2022-11-04T01:04:10;16.20;99.90
28614;DHT22;15806;53.548;9.964;2022-11-04T01:05:51;16.30;99.90
28614;DHT22;15806;53.548;9.964;2022-11-04T01:07:35;16.30;99.90
28614;DHT22;15806;53.548;9.964;2022-11-04T01:09:15;16.40;99.90
28614;DHT22;15806;53.548;9.964;2022-11-04T01:11:17;16.30;99.90
28614;DHT22;15806;53.548;9.964;2022-11-04T01:12:58;16.40;99.90
28614;DHT22;15806;53.548;9.964;2022-11-04T01:14:38;16.50;99.90
28614;DHT22;15806;53.548;9.964;2022-11-04T01:16:19;16.60;99.90
28614;DHT22;15806;53.548;9.964;2022-11-04T01:18:00;16.60;99.90
28614;DHT22;15806;53.548;9.964;2022-11-04T01:19:41;16.60;99.90
28614;DHT22;15806;53.548;9.964;2022-11-04T01:21:21;16.70;99.90
28614;DHT22;15806;53.548;9.964;2022-11-04T01:23:02;16.80;99.90
28614;DHT22;15806;53.548;9.964;2022-11-04T01:24:42;16.80;99.90
28614;DHT22;15806;53.548;9.964;2022-11-04T01:26:24;16.80;99.90
28614;DHT22;15806;53.548;9.964;2022-11-04T01:28:05;16.90;99.90
28614;DHT22;15806;53.548;9.964;2022-11-04T01:29:46;17.00;99.90
28614;DHT22;15806;53.548;9.964;2022-11-04T01:31:28;17.00;99.90
28614;DHT22;15806;53.548;9.964;2022-11-04T01:33:09;17.00;99.90
28614;DHT22;15806;53.548;9.964;2022-11-04T01:34:50;17.00;99.90
28614;DHT22;15806;53.548;9.964;2022-11-04T01:36:30;17.10;99.90
28614;DHT22;15806;53.548;9.964;2022-11-04T01:38:11;17.10;99.90
28614;DHT22;15806;53.548;9.964;2022-11-04T01:39:51;17.20;99.90
28614;DHT22;15806;53.548;9.964;2022-11-04T01:41:32;17.10;99.90
28614;DHT22;15806;53.548;9.964;2022-11-04T01:43:18;17.20;99.90
28614;DHT22;15806;53.548;9.964;2022-11-04T01:44:59;17.20;99.90
28614;DHT22;15806;53.548;9.964;2022-11-04T01:46:46;17.30;99.90
28614;DHT22;15806;53.548;9.964;2022-11-04T01:48:30;17.40;99.90
28614;DHT22;15806;53.548;9.964;2022-11-04T01:50:16;17.30;99.90
28614;DHT22;15806;53.548;9.964;2022-11-04T01:52:06;17.30;99.90
28614;DHT22;15806;53.548;9.964;2022-11-04T01:53:48;17.40;99.90
28614;DHT22;15806;53.548;9.964;2022-11-04T01:55:34;17.40;99.90
28614;DHT22;15806;53.548;9.964;2022-11-04T01:57:24;17.40;99.90
28614;DHT22;15806;53.548;9.964;2022-11-04T01:59:13;17.30;99.90
28614;DHT22;15806;53.548;9.964;2022-11-04T02:00:55;17.30;99.90
28614;DHT22;15806;53.548;9.964;2022-11-04T02:02:43;17.20;99.90
28614;DHT22;15806;53.548;9.964;2022-11-04T02:04:28;17.10;99.90
28614;DHT22;15806;53.548;9.964;2022-11-04T02:06:10;17.20;99.90
28614;DHT22;15806;53.548;9.964;2022-11-04T02:07:54;17.20;99.90
28614;DHT22;15806;53.548;9.964;2022-11-04T02:09:36;17.10;99.90
28614;DHT22;15806;53.548;9.964;2022-11-04T02:11:17;17.10;99.90
28614;DHT22;15806;53.548;9.964;2022-11-04T02:13:02;17.10;99.90
28614;DHT22;15806;53.548;9.964;2022-11-04T02:14:45;17.10;99.90
28614;DHT22;15806;53.548;9.964;2022-11-04T02:16:42;17.10;99.90
28614;DHT22;15806;53.548;9.964;2022-11-04T02:20:20;17.10;99.90
28614;DHT22;15806;53.548;9.964;2022-11-04T02:24:14;17.20;99.90
28614;DHT22;15806;53.548;9.964;2022-11-04T02:28:44;17.40;99.90
28614;DHT22;15806;53.548;9.964;2022-11-04T02:30:23;17.50;99.90
28614;DHT22;15806;53.548;9.964;2022-11-04T02:33:52;17.70;99.90
28614;DHT22;15806;53.548;9.964;2022-11-04T02:35:52;17.80;99.90
28614;DHT22;15806;53.548;9.964;2022-11-04T02:37:58;17.90;99.90
28614;DHT22;15806;53.548;9.964;2022-11-04T02:41:41;18.10;99.90
28614;DHT22;15806;53.548;9.964;2022-11-04T02:43:31;18.20;99.90
28614;DHT22;15806;53.548;9.964;2022-11-04T02:45:15;18.30;99.90
28614;DHT22;15806;53.548;9.964;2022-11-04T02:47:23;18.50;99.90
28614;DHT22;15806;53.548;9.964;2022-11-04T02:49:11;18.60;99.90
28614;DHT22;15806;53.548;9.964;2022-11-04T02:51:02;18.80;99.90
28614;DHT22;15806;53.548;9.964;2022-11-04T02:52:58;18.90;99.90
28614;DHT22;15806;53.548;9.964;2022-11-04T02:54:57;19.00;99.90
28614;DHT22;15806;53.548;9.964;2022-11-04T02:56:50;19.20;99.90
28614;DHT22;15806;53.548;9.964;2022-11-04T02:58:37;19.30;99.90
28614;DHT22;15806;53.548;9.964;2022-11-04T03:00:19;19.30;99.90
28614;DHT22;15806;53.548;9.964;2022-11-04T03:02:03;19.50;99.90
28614;DHT22;15806;53.548;9.964;2022-11-04T03:03:51;19.70;99.90
28614;DHT22;15806;53.548;9.964;2022-11-04T03:05:37;19.80;99.90
28614;DHT22;15806;53.548;9.964;2022-11-04T03:07:23;19.90;99.90
28614;DHT22;15806;53.548;9.964;2022-11-04T03:09:07;19.90;99.90
28614;DHT22;15806;53.548;9.964;2022-11-04T03:10:59;20.00;99.90
28614;DHT22;15806;53.548;9.964;2022-11-04T03:12:48;20.00;99.90
28614;DHT22;15806;53.548;9.964;2022-11-04T03:14:36;20.00;99.90
28614;DHT22;15806;53.548;9.964;2022-11-04T03:16:23;20.00;99.90
28614;DHT22;15806;53.548;9.964;2022-11-04T03:20:00;20.10;99.90
28614;DHT22;15806;53.548;9.964;2022-11-04T03:21:54;20.20;99.90
28614;DHT22;15806;53.548;9.964;2022-11-04T03:23:37;20.40;99.90
28614;DHT22;15806;53.548;9.964;2022-11-04T03:25:19;20.50;99.90
28614;DHT22;15806;53.548;9.964;2022-11-04T03:27:06;20.60;99.90
28614;DHT22;15806;53.548;9.964;2022-11-04T03:30:44;20.80;99.90
28614;DHT22;15806;53.548;9.964;2022-11-04T03:32:43;21.00;99.90
28614;DHT22;15806;53.548;9.964;2022-11-04T03:34:25;21.10;99.90
28614;DHT22;15806;53.548;9.964;2022-11-04T03:36:06;21.20;99.90
28614;DHT22;15806;53.548;9.964;2022-11-04T03:37:47;21.30;99.90
28614;DHT22;15806;53.548;9.964;2022-11-04T03:39:28;21.50;99.90
28614;DHT22;15806;53.548;9.964;2022-11-04T03:41:18;21.50;99.90
28614;DHT22;15806;53.548;9.964;2022-11-04T03:43:08;21.60;99.90
28614;DHT22;15806;53.548;9.964;2022-11-04T03:44:52;21.70;99.90
28614;DHT22;15806;53.548;9.964;2022-11-04T03:46:33;21.80;99.90
28614;DHT22;15806;53.548;9.964;2022-11-04T03:48:14;21.90;99.90
28614;DHT22;15806;53.548;9.964;2022-11-04T03:51:41;22.00;99.90
28614;DHT22;15806;53.548;9.964;2022-11-04T03:53:23;22.10;99.90
28614;DHT22;15806;53.548;9.964;2022-11-04T03:55:05;22.20;99.90
28614;DHT22;15806;53.548;9.964;2022-11-04T03:57:16;22.30;99.90
28614;DHT22;15806;53.548;9.964;2022-11-04T04:03:39;22.60;99.90
28614;DHT22;15806;53.548;9.964;2022-11-04T04:05:43;22.80;99.90
28614;DHT22;15806;53.548;9.964;2022-11-04T04:07:34;22.80;99.90
28614;DHT22;15806;53.548;9.964;2022-11-04T04:09:29;22.80;99.90
28614;DHT22;15806;53.548;9.964;2022-11-04T04:11:30;22.60;99.90
28614;DHT22;15806;53.548;9.964;2022-11-04T04:13:32;22.00;99.90
28614;DHT22;15806;53.548;9.964;2022-11-04T04:15:20;21.60;99.90
28614;DHT22;15806;53.548;9.964;2022-11-04T04:17:12;21.20;99.90
28614;DHT22;15806;53.548;9.964;2022-11-04T04:19:05;20.90;99.90
28614;DHT22;15806;53.548;9.964;2022-11-04T04:20:48;20.30;99.90
28614;DHT22;15806;53.548;9.964;2022-11-04T04:22:40;19.30;99.90
28614;DHT22;15806;53.548;9.964;2022-11-04T04:24:25;18.80;99.90
28614;DHT22;15806;53.548;9.964;2022-11-04T04:26:09;18.20;99.90
28614;DHT22;15806;53.548;9.964;2022-11-04T04:27:50;17.90;99.90
28614;DHT22;15806;53.548;9.964;2022-11-04T04:29:32;17.50;99.90
28614;DHT22;15806;53.548;9.964;2022-11-04T04:31:15;17.20;99.90
28614;DHT22;15806;53.548;9.964;2022-11-04T04:33:06;17.00;99.90
28614;DHT22;15806;53.548;9.964;2022-11-04T04:34:47;16.60;99.90
28614;DHT22;15806;53.548;9.964;2022-11-04T04:36:29;16.50;99.90
28614;DHT22;15806;53.548;9.964;2022-11-04T04:39:57;16.00;99.90
28614;DHT22;15806;53.548;9.964;2022-11-04T04:41:39;15.80;99.90
28614;DHT22;15806;53.548;9.964;2022-11-04T04:43:19;15.60;99.90
28614;DHT22;15806;53.548;9.964;2022-11-04T04:45:02;15.40;99.90
28614;DHT22;15806;53.548;9.964;2022-11-04T04:46:44;15.20;99.90
28614;DHT22;15806;53.548;9.964;2022-11-04T04:48:26;15.20;99.90
28614;DHT22;15806;53.548;9.964;2022-11-04T04:50:08;15.00;99.90
28614;DHT22;15806;53.548;9.964;2022-11-04T04:51:49;14.90;99.90
28614;DHT22;15806;53.548;9.964;2022-11-04T04:53:29;14.80;99.90
28614;DHT22;15806;53.548;9.964;2022-11-04T04:55:11;14.60;99.90
28614;DHT22;15806;53.548;9.964;2022-11-04T04:56:51;14.60;99.90
28614;DHT22;15806;53.548;9.964;2022-11-04T04:58:32;14.50;99.90
28614;DHT22;15806;53.548;9.964;2022-11-04T05:00:19;14.50;99.90
28614;DHT22;15806;53.548;9.964;2022-11-04T05:02:00;14.40;99.90
28614;DHT22;15806;53.548;9.964;2022-11-04T05:03:40;14.50;99.90
28614;DHT22;15806;53.548;9.964;2022-11-04T05:05:21;14.40;99.90
28614;DHT22;15806;53.548;9.964;2022-11-04T05:07:01;14.30;99.90
28614;DHT22;15806;53.548;9.964;2022-11-04T05:08:42;14.40;99.90
28614;DHT22;15806;53.548;9.964;2022-11-04T05:10:22;14.40;99.90
28614;DHT22;15806;53.548;9.964;2022-11-04T05:12:03;14.40;99.90
28614;DHT22;15806;53.548;9.964;2022-11-04T05:13:44;14.30;99.90
28614;DHT22;15806;53.548;9.964;2022-11-04T05:15:25;14.30;99.90
28614;DHT22;15806;53.548;9.964;2022-11-04T05:17:06;14.20;99.90
28614;DHT22;15806;53.548;9.964;2022-11-04T05:18:46;14.20;99.90
28614;DHT22;15806;53.548;9.964;2022-11-04T05:20:27;14.10;99.90
28614;DHT22;15806;53.548;9.964;2022-11-04T05:22:08;14.10;99.90
28614;DHT22;15806;53.548;9.964;2022-11-04T05:23:49;14.10;99.90
28614;DHT22;15806;53.548;9.964;2022-11-04T05:25:29;14.10;99.90
28614;DHT22;15806;53.548;9.964;2022-11-04T05:27:10;14.10;99.90
28614;DHT22;15806;53.548;9.964;2022-11-04T05:28:50;14.10;99.90
28614;DHT22;15806;53.548;9.964;2022-11-04T05:30:31;14.10;99.90
28614;DHT22;15806;53.548;9.964;2022-11-04T05:32:12;14.20;99.90
28614;DHT22;15806;53.548;9.964;2022-11-04T05:33:52;14.10;99.90
28614;DHT22;15806;53.548;9.964;2022-11-04T05:35:33;14.10;99.90
28614;DHT22;15806;53.548;9.964;2022-11-04T05:37:14;14.20;99.90
28614;DHT22;15806;53.548;9.964;2022-11-04T05:38:54;14.10;99.90
28614;DHT22;15806;53.548;9.964;2022-11-04T05:40:35;14.20;99.90
28614;DHT22;15806;53.548;9.964;2022-11-04T05:42:15;14.20;99.90
28614;DHT22;15806;53.548;9.964;2022-11-04T05:44:01;14.20;99.90
28614;DHT22;15806;53.548;9.964;2022-11-04T05:45:42;14.20;99.90
28614;DHT22;15806;53.548;9.964;2022-11-04T05:47:22;14.20;99.90
28614;DHT22;15806;53.548;9.964;2022-11-04T05:49:03;14.20;99.90
28614;DHT22;15806;53.548;9.964;2022-11-04T05:50:44;14.30;99.90
28614;DHT22;15806;53.548;9.964;2022-11-04T05:52:24;14.30;99.90
28614;DHT22;15806;53.548;9.964;2022-11-04T05:54:05;14.30;99.90
28614;DHT22;15806;53.548;9.964;2022-11-04T05:55:45;14.30;99.90
28614;DHT22;15806;53.548;9.964;2022-11-04T05:57:26;14.30;99.90
28614;DHT22;15806;53.548;9.964;2022-11-04T05:59:06;14.30;99.90
28614;DHT22;15806;53.548;9.964;2022-11-04T06:00:47;14.30;99.90
28614;DHT22;15806;53.548;9.964;2022-11-04T06:02:27;14.30;99.90
28614;DHT22;15806;53.548;9.964;2022-11-04T06:04:14;14.30;99.90
28614;DHT22;15806;53.548;9.964;2022-11-04T06:05:55;14.30;99.90
28614;DHT22;15806;53.548;9.964;2022-11-04T06:07:36;14.40;99.90
28614;DHT22;15806;53.548;9.964;2022-11-04T06:09:16;14.30;99.90
28614;DHT22;15806;53.548;9.964;2022-11-04T06:10:57;14.40;99.90
28614;DHT22;15806;53.548;9.964;2022-11-04T06:12:38;14.40;99.90
28614;DHT22;15806;53.548;9.964;2022-11-04T06:14:18;14.50;99.90
28614;DHT22;15806;53.548;9.964;2022-11-04T06:15:59;14.40;99.90
28614;DHT22;15806;53.548;9.964;2022-11-04T06:17:39;14.50;99.90
28614;DHT22;15806;53.548;9.964;2022-11-04T06:19:20;14.40;99.90
28614;DHT22;15806;53.548;9.964;2022-11-04T06:22:54;14.30;99.90
28614;DHT22;15806;53.548;9.964;2022-11-04T06:24:34;14.40;99.90
28614;DHT22;15806;53.548;9.964;2022-11-04T06:26:15;14.50;99.90
28614;DHT22;15806;53.548;9.964;2022-11-04T06:27:56;14.50;99.90
28614;DHT22;15806;53.548;9.964;2022-11-04T06:29:37;14.50;99.90
28614;DHT22;15806;53.548;9.964;2022-11-04T06:31:18;14.40;99.90
28614;DHT22;15806;53.548;9.964;2022-11-04T06:32:59;14.40;99.90
28614;DHT22;15806;53.548;9.964;2022-11-04T06:34:39;14.50;99.90
28614;DHT22;15806;53.548;9.964;2022-11-04T06:36:20;14.30;99.90
28614;DHT22;15806;53.548;9.964;2022-11-04T06:38:00;14.40;99.90
28614;DHT22;15806;53.548;9.964;2022-11-04T06:39:41;14.40;99.90
28614;DHT22;15806;53.548;9.964;2022-11-04T06:41:21;14.50;99.90
28614;DHT22;15806;53.548;9.964;2022-11-04T06:43:02;14.50;99.90
28614;DHT22;15806;53.548;9.964;2022-11-04T06:44:42;14.40;99.90
28614;DHT22;15806;53.548;9.964;2022-11-04T06:46:38;14.50;99.90
28614;DHT22;15806;53.548;9.964;2022-11-04T06:48:19;14.60;99.90
28614;DHT22;15806;53.548;9.964;2022-11-04T06:49:59;14.50;99.90
28614;DHT22;15806;53.548;9.964;2022-11-04T06:51:40;14.60;99.90
28614;DHT22;15806;53.548;9.964;2022-11-04T06:53:20;14.50;99.90
28614;DHT22;15806;53.548;9.964;2022-11-04T06:55:01;14.50;99.90
28614;DHT22;15806;53.548;9.964;2022-11-04T06:56:42;14.50;99.90
28614;DHT22;15806;53.548;9.964;2022-11-04T06:58:23;14.60;99.90
28614;DHT22;15806;53.548;9.964;2022-11-04T07:00:04;14.60;99.90
28614;DHT22;15806;53.548;9.964;2022-11-04T07:01:45;14.50;99.90
28614;DHT22;15806;53.548;9.964;2022-11-04T07:03:26;14.60;99.90
28614;DHT22;15806;53.548;9.964;2022-11-04T07:05:07;14.60;99.90
28614;DHT22;15806;53.548;9.964;2022-11-04T07:06:47;14.70;99.90
28614;DHT22;15806;53.548;9.964;2022-11-04T07:08:28;14.70;99.90
28614;DHT22;15806;53.548;9.964;2022-11-04T07:10:09;14.80;99.90
28614;DHT22;15806;53.548;9.964;2022-11-04T07:11:50;14.80;99.90
28614;DHT22;15806;53.548;9.964;2022-11-04T07:13:30;14.80;99.90
28614;DHT22;15806;53.548;9.964;2022-11-04T07:15:11;14.70;99.90
28614;DHT22;15806;53.548;9.964;2022-11-04T07:16:51;14.70;99.90
28614;DHT22;15806;53.548;9.964;2022-11-04T07:18:32;14.70;99.90
28614;DHT22;15806;53.548;9.964;2022-11-04T07:20:12;14.60;99.90
28614;DHT22;15806;53.548;9.964;2022-11-04T07:21:53;14.60;99.90
28614;DHT22;15806;53.548;9.964;2022-11-04T07:23:34;14.60;99.90
28614;DHT22;15806;53.548;9.964;2022-11-04T07:25:14;14.70;99.90
28614;DHT22;15806;53.548;9.964;2022-11-04T07:26:55;14.60;99.90
28614;DHT22;15806;53.548;9.964;2022-11-04T07:28:36;14.60;99.90
28614;DHT22;15806;53.548;9.964;2022-11-04T07:30:16;14.60;99.90
28614;DHT22;15806;53.548;9.964;2022-11-04T07:31:57;14.60;99.90
28614;DHT22;15806;53.548;9.964;2022-11-04T07:33:38;14.70;99.90
28614;DHT22;15806;53.548;9.964;2022-11-04T07:35:18;14.70;99.90
28614;DHT22;15806;53.548;9.964;2022-11-04T07:36:59;14.80;99.90
28614;DHT22;15806;53.548;9.964;2022-11-04T07:43:18;14.80;99.90
28614;DHT22;15806;53.548;9.964;2022-11-04T07:44:58;14.80;99.90
28614;DHT22;15806;53.548;9.964;2022-11-04T07:46:38;14.80;99.90
28614;DHT22;15806;53.548;9.964;2022-11-04T07:48:19;14.70;99.90
28614;DHT22;15806;53.548;9.964;2022-11-04T07:50:00;14.70;99.90
28614;DHT22;15806;53.548;9.964;2022-11-04T07:51:40;14.80;99.90
28614;DHT22;15806;53.548;9.964;2022-11-04T07:53:21;14.80;99.90
28614;DHT22;15806;53.548;9.964;2022-11-04T07:55:01;14.80;99.90
28614;DHT22;15806;53.548;9.964;2022-11-04T07:56:42;14.80;99.90
28614;DHT22;15806;53.548;9.964;2022-11-04T07:58:23;14.80;99.90
28614;DHT22;15806;53.548;9.964;2022-11-04T08:00:04;14.80;99.90
28614;DHT22;15806;53.548;9.964;2022-11-04T08:01:44;14.80;99.90
28614;DHT22;15806;53.548;9.964;2022-11-04T08:03:25;14.70;99.90
28614;DHT22;15806;53.548;9.964;2022-11-04T08:05:06;14.70;99.90
28614;DHT22;15806;53.548;9.964;2022-11-04T08:06:47;14.70;99.90
28614;DHT22;15806;53.548;9.964;2022-11-04T08:08:28;14.70;99.90
28614;DHT22;15806;53.548;9.964;2022-11-04T08:10:09;14.80;99.90
28614;DHT22;15806;53.548;9.964;2022-11-04T08:11:49;14.70;99.90
28614;DHT22;15806;53.548;9.964;2022-11-04T08:13:32;14.70;99.90
28614;DHT22;15806;53.548;9.964;2022-11-04T08:15:13;14.80;99.90
28614;DHT22;15806;53.548;9.964;2022-11-04T08:16:54;14.60;99.90
28614;DHT22;15806;53.548;9.964;2022-11-04T08:18:35;14.60;99.90
28614;DHT22;15806;53.548;9.964;2022-11-04T08:20:16;14.50;99.90
28614;DHT22;15806;53.548;9.964;2022-11-04T08:21:56;14.40;99.90
28614;DHT22;15806;53.548;9.964;2022-11-04T08:23:37;14.40;99.90
28614;DHT22;15806;53.548;9.964;2022-11-04T08:25:18;14.50;99.90
28614;DHT22;15806;53.548;9.964;2022-11-04T08:26:58;14.50;99.90
28614;DHT22;15806;53.548;9.964;2022-11-04T08:28:39;14.50;99.90
28614;DHT22;15806;53.548;9.964;2022-11-04T08:30:20;14.50;99.90
28614;DHT22;15806;53.548;9.964;2022-11-04T08:32:01;14.50;99.90
28614;DHT22;15806;53.548;9.964;2022-11-04T08:33:42;14.50;99.90
28614;DHT22;15806;53.548;9.964;2022-11-04T08:35:24;14.50;99.90
28614;DHT22;15806;53.548;9.964;2022-11-04T08:37:05;14.40;99.90
28614;DHT22;15806;53.548;9.964;2022-11-04T08:38:46;14.50;99.90
28614;DHT22;15806;53.548;9.964;2022-11-04T08:40:26;14.50;99.90
28614;DHT22;15806;53.548;9.964;2022-11-04T08:42:08;14.50;99.90
28614;DHT22;15806;53.548;9.964;2022-11-04T08:43:49;14.40;99.90
28614;DHT22;15806;53.548;9.964;2022-11-04T08:45:29;14.20;99.90
28614;DHT22;15806;53.548;9.964;2022-11-04T08:47:10;14.30;99.90
28614;DHT22;15806;53.548;9.964;2022-11-04T08:48:51;14.20;99.90
28614;DHT22;15806;53.548;9.964;2022-11-04T08:50:31;14.30;99.90
28614;DHT22;15806;53.548;9.964;2022-11-04T08:52:12;14.20;99.90
28614;DHT22;15806;53.548;9.964;2022-11-04T08:53:53;14.10;99.90
28614;DHT22;15806;53.548;9.964;2022-11-04T08:55:33;14.20;99.90
28614;DHT22;15806;53.548;9.964;2022-11-04T08:57:14;14.20;99.90
28614;DHT22;15806;53.548;9.964;2022-11-04T08:58:56;14.10;99.90
28614;DHT22;15806;53.548;9.964;2022-11-04T09:00:40;14.10;99.90
28614;DHT22;15806;53.548;9.964;2022-11-04T09:02:20;14.00;99.90
28614;DHT22;15806;53.548;9.964;2022-11-04T09:04:01;14.00;99.90
28614;DHT22;15806;53.548;9.964;2022-11-04T09:05:42;14.00;99.90
28614;DHT22;15806;53.548;9.964;2022-11-04T09:07:23;14.10;99.90
28614;DHT22;15806;53.548;9.964;2022-11-04T09:09:06;14.10;99.90
28614;DHT22;15806;53.548;9.964;2022-11-04T09:10:47;14.10;99.90
28614;DHT22;15806;53.548;9.964;2022-11-04T09:12:28;14.10;99.90
28614;DHT22;15806;53.548;9.964;2022-11-04T09:14:09;14.10;99.90
28614;DHT22;15806;53.548;9.964;2022-11-04T09:15:50;14.10;99.90
28614;DHT22;15806;53.548;9.964;2022-11-04T09:17:31;14.00;99.90
28614;DHT22;15806;53.548;9.964;2022-11-04T09:19:11;14.00;99.90
28614;DHT22;15806;53.548;9.964;2022-11-04T09:20:52;13.90;99.90
28614;DHT22;15806;53.548;9.964;2022-11-04T09:22:32;14.10;99.90
28614;DHT22;15806;53.548;9.964;2022-11-04T09:24:13;14.00;99.90
28614;DHT22;15806;53.548;9.964;2022-11-04T09:25:53;14.00;99.90
28614;DHT22;15806;53.548;9.964;2022-11-04T09:27:34;14.00;99.90
28614;DHT22;15806;53.548;9.964;2022-11-04T09:29:14;13.90;99.90
28614;DHT22;15806;53.548;9.964;2022-11-04T09:30:55;14.00;99.90
28614;DHT22;15806;53.548;9.964;2022-11-04T09:32:36;13.90;99.90
28614;DHT22;15806;53.548;9.964;2022-11-04T09:34:18;13.90;99.90
28614;DHT22;15806;53.548;9.964;2022-11-04T09:35:58;13.70;99.90
28614;DHT22;15806;53.548;9.964;2022-11-04T09:37:39;13.80;99.90
28614;DHT22;15806;53.548;9.964;2022-11-04T09:39:19;13.70;99.90
28614;DHT22;15806;53.548;9.964;2022-11-04T09:41:00;13.70;99.90
28614;DHT22;15806;53.548;9.964;2022-11-04T09:42:59;13.80;99.90
28614;DHT22;15806;53.548;9.964;2022-11-04T09:44:48;13.70;99.90
28614;DHT22;15806;53.548;9.964;2022-11-04T09:46:31;13.70;99.90
28614;DHT22;15806;53.548;9.964;2022-11-04T09:48:26;13.80;99.90
28614;DHT22;15806;53.548;9.964;2022-11-04T09:50:09;13.90;99.90
28614;DHT22;15806;53.548;9.964;2022-11-04T09:51:56;13.80;99.90
28614;DHT22;15806;53.548;9.964;2022-11-04T09:54:21;13.70;99.90
28614;DHT22;15806;53.548;9.964;2022-11-04T09:57:29;13.90;99.90
28614;DHT22;15806;53.548;9.964;2022-11-04T09:59:18;14.00;99.90
28614;DHT22;15806;53.548;9.964;2022-11-04T10:01:05;13.90;99.90
28614;DHT22;15806;53.548;9.964;2022-11-04T10:11:47;13.80;99.90
28614;DHT22;15806;53.548;9.964;2022-11-04T10:16:13;14.00;99.90
28614;DHT22;15806;53.548;9.964;2022-11-04T10:20:23;14.00;99.90
28614;DHT22;15806;53.548;9.964;2022-11-04T10:27:54;14.00;99.90
28614;DHT22;15806;53.548;9.964;2022-11-04T10:29:44;14.00;99.90
28614;DHT22;15806;53.548;9.964;2022-11-04T10:31:26;14.00;99.90
28614;DHT22;15806;53.548;9.964;2022-11-04T10:36:57;14.10;99.90
28614;DHT22;15806;53.548;9.964;2022-11-04T10:38:43;14.20;99.90
28614;DHT22;15806;53.548;9.964;2022-11-04T10:40:28;14.20;99.90
28614;DHT22;15806;53.548;9.964;2022-11-04T10:42:18;14.10;99.90
28614;DHT22;15806;53.548;9.964;2022-11-04T10:44:31;14.20;99.90
28614;DHT22;15806;53.548;9.964;2022-11-04T10:46:30;14.30;99.90
28614;DHT22;15806;53.548;9.964;2022-11-04T10:48:29;14.10;99.90
28614;DHT22;15806;53.548;9.964;2022-11-04T10:51:53;14.00;99.90
28614;DHT22;15806;53.548;9.964;2022-11-04T10:53:34;14.20;99.90
28614;DHT22;15806;53.548;9.964;2022-11-04T10:57:07;14.10;99.90
28614;DHT22;15806;53.548;9.964;2022-11-04T10:58:47;14.30;99.90
28614;DHT22;15806;53.548;9.964;2022-11-04T11:00:38;14.30;99.90
28614;DHT22;15806;53.548;9.964;2022-11-04T11:04:27;14.30;99.90
28614;DHT22;15806;53.548;9.964;2022-11-04T11:06:12;14.50;99.90
28614;DHT22;15806;53.548;9.964;2022-11-04T11:07:54;14.70;99.90
28614;DHT22;15806;53.548;9.964;2022-11-04T11:11:48;15.00;99.90
28614;DHT22;15806;53.548;9.964;2022-11-04T11:13:35;14.70;99.90
28614;DHT22;15806;53.548;9.964;2022-11-04T11:19:14;15.40;99.90
28614;DHT22;15806;53.548;9.964;2022-11-04T11:21:13;15.50;99.90
28614;DHT22;15806;53.548;9.964;2022-11-04T11:22:54;15.40;99.90
28614;DHT22;15806;53.548;9.964;2022-11-04T11:24:34;14.50;99.90
28614;DHT22;15806;53.548;9.964;2022-11-04T11:26:20;14.30;99.90
28614;DHT22;15806;53.548;9.964;2022-11-04T11:28:19;14.50;99.90
28614;DHT22;15806;53.548;9.964;2022-11-04T11:30:02;14.50;99.90
28614;DHT22;15806;53.548;9.964;2022-11-04T11:31:42;14.60;99.90
28614;DHT22;15806;53.548;9.964;2022-11-04T11:33:34;14.20;99.90
28614;DHT22;15806;53.548;9.964;2022-11-04T11:35:16;14.30;99.90
28614;DHT22;15806;53.548;9.964;2022-11-04T11:36:58;14.40;99.90
28614;DHT22;15806;53.548;9.964;2022-11-04T11:39:00;14.30;99.90
28614;DHT22;15806;53.548;9.964;2022-11-04T11:40:41;14.20;99.90
28614;DHT22;15806;53.548;9.964;2022-11-04T11:42:23;14.10;99.90
28614;DHT22;15806;53.548;9.964;2022-11-04T11:44:25;14.10;99.90
28614;DHT22;15806;53.548;9.964;2022-11-04T11:46:04;14.30;99.90
28614;DHT22;15806;53.548;9.964;2022-11-04T11:47:45;14.70;99.90
28614;DHT22;15806;53.548;9.964;2022-11-04T11:49:34;14.30;99.90
28614;DHT22;15806;53.548;9.964;2022-11-04T11:51:25;14.50;99.90
28614;DHT22;15806;53.548;9.964;2022-11-04T11:53:13;15.20;99.90
28614;DHT22;15806;53.548;9.964;2022-11-04T11:54:57;14.60;99.90
28614;DHT22;15806;53.548;9.964;2022-11-04T11:56:49;14.50;99.90
28614;DHT22;15806;53.548;9.964;2022-11-04T11:58:36;14.60;99.90
28614;DHT22;15806;53.548;9.964;2022-11-04T12:00:18;15.00;99.90